LFBP/PUF METAR and TAF weather

Enter ICAO airport designator
Station Type Date Time Source
LFBP METAR 2019/08/23 18:00 UTC NOAA

LFBP 231800Z AUTO 08003KT CAVOK 28/18 Q1017 NOSIG


Station Type Date Time Source
LFBP Decoded METAR 2019/08/23 18:00 UTC NOAA

Station name not available
Aug 23, 2019 - 02:00 PM EDT / 2019.08.23 1800 UTC
Wind: from the E (080 degrees) at 3 MPH (3 KT):0
Visibility: greater than 7 mile(s):0
Temperature: 82 F (28 C)
Dew Point: 64 F (18 C)
Relative Humidity: 54%
Pressure (altimeter): 30.03 in. Hg (1017 hPa)
ob: LFBP 231800Z AUTO 08003KT CAVOK 28/18 Q1017 NOSIG
cycle: 18

Station Type Date Time Source
LFBP TAF 2019/08/23 18:21 UTC NOAA

TAF LFBP 231700Z 2318/2418 VRB03KT CAVOK
BECMG 2417/2418 30010KT

Example: see airport list